createdAt,value
2023-03-04T00:00:12.293Z,-0.45
2023-03-04T00:02:59.577Z,-0.45
2023-03-04T00:05:27.075Z,-0.43
2023-03-04T00:07:54.326Z,-0.42
2023-03-04T00:10:22.415Z,-0.41
2023-03-04T00:12:49.603Z,-0.41
2023-03-04T00:15:16.804Z,-0.39
2023-03-04T00:17:46.464Z,-0.39
2023-03-04T00:20:16.786Z,-0.39
2023-03-04T00:22:44.145Z,-0.38
2023-03-04T00:25:12.336Z,-0.37
2023-03-04T00:27:41.898Z,-0.35
2023-03-04T00:30:11.700Z,-0.34
2023-03-04T00:32:39.243Z,-0.33
2023-03-04T00:35:10.956Z,-0.31
2023-03-04T00:37:38.244Z,-0.31
2023-03-04T00:40:06.867Z,-0.31
2023-03-04T00:42:33.983Z,-0.29
2023-03-04T00:45:01.192Z,-0.27
2023-03-04T00:47:29.070Z,-0.26
2023-03-04T00:49:56.729Z,-0.25
2023-03-04T00:52:23.776Z,-0.27
2023-03-04T00:54:51.057Z,-0.27
2023-03-04T00:57:18.381Z,-0.27
2023-03-04T00:59:47.882Z,-0.28
2023-03-04T01:02:15.422Z,-0.29
2023-03-04T01:04:43.156Z,-0.29
2023-03-04T01:07:10.821Z,-0.29
2023-03-04T01:09:38.224Z,-0.29
2023-03-04T01:12:06.156Z,-0.28
2023-03-04T01:14:33.342Z,-0.28
2023-03-04T01:17:00.874Z,-0.29
2023-03-04T01:19:28.397Z,-0.30
2023-03-04T01:21:55.614Z,-0.30
2023-03-04T01:24:22.877Z,-0.32
2023-03-04T01:26:50.155Z,-0.33
2023-03-04T01:29:17.373Z,-0.35
2023-03-04T01:31:44.504Z,-0.37
2023-03-04T01:34:13.105Z,-0.36
2023-03-04T01:36:40.357Z,-0.38
2023-03-04T01:39:08.238Z,-0.38
2023-03-04T01:41:35.702Z,-0.38
2023-03-04T01:44:03.865Z,-0.39
2023-03-04T01:46:32.819Z,-0.39
2023-03-04T01:49:01.297Z,-0.42
2023-03-04T01:51:31.009Z,-0.43
2023-03-04T01:53:58.810Z,-0.43
2023-03-04T01:56:30.429Z,-0.43
2023-03-04T01:59:16.455Z,-0.41
2023-03-04T02:01:46.129Z,-0.40
2023-03-04T02:04:14.275Z,-0.40
2023-03-04T02:06:42.946Z,-0.40
2023-03-04T02:09:10.383Z,-0.41
2023-03-04T02:11:38.660Z,-0.41
2023-03-04T02:14:07.505Z,-0.41
2023-03-04T02:16:35.037Z,-0.41
2023-03-04T02:19:02.978Z,-0.40
2023-03-04T02:21:32.261Z,-0.40
2023-03-04T02:24:08.455Z,-0.41
2023-03-04T02:26:37.337Z,-0.40
2023-03-04T02:29:06.022Z,-0.40
2023-03-04T02:31:37.155Z,-0.39
2023-03-04T02:34:07.997Z,-0.38
2023-03-04T02:36:37.726Z,-0.39
2023-03-04T02:39:09.406Z,-0.38
2023-03-04T02:41:37.847Z,-0.36
2023-03-04T02:44:05.353Z,-0.35
2023-03-04T02:46:32.729Z,-0.33
2023-03-04T02:49:00.025Z,-0.31
2023-03-04T02:51:27.882Z,-0.29
2023-03-04T02:53:55.135Z,-0.27
2023-03-04T02:56:22.526Z,-0.25
2023-03-04T02:58:49.742Z,-0.24
2023-03-04T03:01:17.072Z,-0.23
2023-03-04T03:03:44.591Z,-0.22
2023-03-04T03:06:14.018Z,-0.19
2023-03-04T03:08:41.519Z,-0.17
2023-03-04T03:11:09.590Z,-0.15
2023-03-04T03:13:37.170Z,-0.14
2023-03-04T03:16:04.632Z,-0.11
2023-03-04T03:18:31.761Z,-0.10
2023-03-04T03:20:59.009Z,-0.08
2023-03-04T03:23:29.538Z,-0.07
2023-03-04T03:26:01.916Z,-0.04
2023-03-04T03:28:29.315Z,-0.03
2023-03-04T03:30:56.616Z,-0.02
2023-03-04T03:33:23.879Z,0.02
2023-03-04T03:35:51.652Z,0.03
2023-03-04T03:38:19.088Z,0.05
2023-03-04T03:40:46.652Z,0.08
2023-03-04T03:43:13.943Z,0.10
2023-03-04T03:45:41.403Z,0.11
2023-03-04T03:48:08.982Z,0.13
2023-03-04T03:50:56.378Z,0.16
2023-03-04T03:53:23.498Z,0.18
2023-03-04T03:55:50.639Z,0.19
2023-03-04T03:58:17.999Z,0.20
2023-03-04T04:00:45.256Z,0.22
2023-03-04T04:03:15.675Z,0.24
2023-03-04T04:05:43.142Z,0.25
2023-03-04T04:08:11.445Z,0.27
2023-03-04T04:10:38.793Z,0.30
2023-03-04T04:13:05.988Z,0.33
2023-03-04T04:15:33.396Z,0.34
2023-03-04T04:18:00.542Z,0.36
2023-03-04T04:20:27.831Z,0.39
2023-03-04T04:22:54.885Z,0.41
2023-03-04T04:25:22.300Z,0.43
2023-03-04T04:27:49.581Z,0.45
2023-03-04T04:30:17.574Z,0.47
2023-03-04T04:32:44.719Z,0.49
2023-03-04T04:35:12.854Z,0.51
2023-03-04T04:37:40.228Z,0.53
2023-03-04T04:40:09.014Z,0.55
2023-03-04T04:42:36.534Z,0.56
2023-03-04T04:45:04.094Z,0.58
2023-03-04T04:47:31.253Z,0.60
2023-03-04T04:50:01.507Z,0.62
2023-03-04T04:52:28.717Z,0.64
2023-03-04T04:54:55.977Z,0.64
2023-03-04T04:57:23.698Z,0.66
2023-03-04T04:59:51.107Z,0.66
2023-03-04T05:02:18.344Z,0.66
2023-03-04T05:04:48.262Z,0.66
2023-03-04T05:07:15.474Z,0.66
2023-03-04T05:09:42.767Z,0.66
2023-03-04T05:12:10.436Z,0.64
2023-03-04T05:14:37.787Z,0.64
2023-03-04T05:17:04.902Z,0.64
2023-03-04T05:19:32.086Z,0.64
2023-03-04T05:21:59.243Z,0.64
2023-03-04T05:24:26.510Z,0.64
2023-03-04T05:26:53.859Z,0.65
2023-03-04T05:29:21.105Z,0.63
2023-03-04T05:31:48.250Z,0.62
2023-03-04T05:34:15.483Z,0.62
2023-03-04T05:36:42.551Z,0.63
2023-03-04T05:39:09.764Z,0.63
2023-03-04T05:41:36.975Z,0.64
2023-03-04T05:44:04.513Z,0.64
2023-03-04T05:46:33.537Z,0.63
2023-03-04T05:49:01.179Z,0.63
2023-03-04T05:51:28.534Z,0.64
2023-03-04T05:53:55.678Z,0.66
2023-03-04T05:56:23.767Z,0.67
2023-03-04T05:58:50.967Z,0.66
2023-03-04T06:01:18.733Z,0.66
2023-03-04T06:03:48.778Z,0.67
2023-03-04T06:06:15.936Z,0.68
2023-03-04T06:08:43.086Z,0.69
2023-03-04T06:11:10.644Z,0.70
2023-03-04T06:13:40.777Z,0.71
2023-03-04T06:16:11.156Z,0.71
2023-03-04T06:18:39.063Z,0.72
2023-03-04T06:21:06.980Z,0.73
2023-03-04T06:23:34.094Z,0.74
2023-03-04T06:26:02.437Z,0.76
2023-03-04T06:28:30.218Z,0.76
2023-03-04T06:30:58.910Z,0.78
2023-03-04T06:33:26.669Z,0.78
2023-03-04T06:35:57.555Z,0.80
2023-03-04T06:38:25.267Z,0.80
2023-03-04T06:40:53.887Z,0.80
2023-03-04T06:43:22.134Z,0.80
2023-03-04T06:45:50.510Z,0.81
2023-03-04T06:48:17.873Z,0.81
2023-03-04T06:50:45.219Z,0.81
2023-03-04T06:53:12.819Z,0.83
2023-03-04T06:55:40.130Z,0.83
2023-03-04T06:58:07.387Z,0.84
2023-03-04T07:00:35.083Z,0.85
2023-03-04T07:03:02.928Z,0.86
2023-03-04T07:05:30.825Z,0.87
2023-03-04T07:07:58.034Z,0.88
2023-03-04T07:10:25.316Z,0.89
2023-03-04T07:12:52.460Z,0.91
2023-03-04T07:15:19.658Z,0.92
2023-03-04T07:17:46.946Z,0.94
2023-03-04T07:20:15.282Z,0.95
2023-03-04T07:22:42.477Z,0.98
2023-03-04T07:25:11.291Z,0.98
2023-03-04T07:27:41.074Z,0.98
2023-03-04T07:30:11.147Z,0.99
2023-03-04T07:32:38.464Z,1.00
2023-03-04T07:35:06.057Z,1.00
2023-03-04T07:37:33.469Z,1.01
2023-03-04T07:40:00.821Z,1.02
2023-03-04T07:42:28.380Z,1.04
2023-03-04T07:45:00.340Z,1.05
2023-03-04T07:47:27.863Z,1.05
2023-03-04T07:49:56.282Z,1.07
2023-03-04T07:52:23.641Z,1.07
2023-03-04T07:54:50.992Z,1.08
2023-03-04T07:57:18.246Z,1.08
2023-03-04T07:59:45.510Z,1.09
2023-03-04T08:02:13.281Z,1.09
2023-03-04T08:04:40.820Z,1.10
2023-03-04T08:07:17.299Z,1.10
2023-03-04T08:09:44.574Z,1.12
2023-03-04T08:12:12.336Z,1.14
2023-03-04T08:14:39.558Z,1.17
2023-03-04T08:17:06.841Z,1.19
2023-03-04T08:19:34.422Z,1.20
2023-03-04T08:22:01.763Z,1.21
2023-03-04T08:24:29.186Z,1.21
2023-03-04T08:26:59.288Z,1.23
2023-03-04T08:29:27.785Z,1.24
2023-03-04T08:31:56.314Z,1.22
2023-03-04T08:34:26.038Z,1.24
2023-03-04T08:36:53.535Z,1.25
2023-03-04T08:39:21.616Z,1.26
2023-03-04T08:41:50.101Z,1.27
2023-03-04T08:44:18.467Z,1.27
2023-03-04T08:46:46.641Z,1.29
2023-03-04T08:49:15.595Z,1.30
2023-03-04T08:51:46.494Z,1.32
2023-03-04T08:54:14.001Z,1.33
2023-03-04T08:56:41.809Z,1.36
2023-03-04T08:59:12.551Z,1.37
2023-03-04T09:01:39.933Z,1.38
2023-03-04T09:04:07.454Z,1.39
2023-03-04T09:06:35.006Z,1.42
2023-03-04T09:09:02.700Z,1.45
2023-03-04T09:11:30.020Z,1.48
2023-03-04T09:13:57.708Z,1.51
2023-03-04T09:16:25.009Z,1.55
2023-03-04T09:19:02.987Z,1.64
2023-03-04T09:21:30.501Z,1.69
2023-03-04T09:23:57.857Z,1.74
2023-03-04T09:26:26.747Z,1.79
2023-03-04T09:28:55.758Z,1.84
2023-03-04T09:31:22.939Z,1.86
2023-03-04T09:33:51.740Z,1.88
2023-03-04T09:36:19.140Z,1.90
2023-03-04T09:38:47.412Z,1.94
2023-03-04T09:41:20.497Z,1.93
2023-03-04T09:43:48.840Z,1.93
2023-03-04T09:46:20.463Z,1.92
2023-03-04T09:48:51.733Z,1.94
2023-03-04T09:51:28.979Z,1.94
2023-03-04T09:54:06.370Z,1.95
2023-03-04T09:56:34.927Z,1.97
2023-03-04T09:59:11.111Z,1.97
2023-03-04T10:01:43.716Z,1.98
2023-03-04T10:04:42.026Z,1.97
2023-03-04T10:07:16.726Z,1.96
2023-03-04T10:09:48.970Z,1.96
2023-03-04T10:12:21.231Z,1.94
2023-03-04T10:14:54.011Z,1.93
2023-03-04T10:17:25.259Z,1.94
2023-03-04T10:20:00.111Z,1.95
2023-03-04T10:22:33.688Z,1.98
2023-03-04T10:25:04.114Z,1.99
2023-03-04T10:27:32.390Z,2.02
2023-03-04T10:30:01.922Z,2.06
2023-03-04T10:32:34.830Z,2.08
2023-03-04T10:35:02.156Z,2.08
2023-03-04T10:37:47.473Z,2.11
2023-03-04T10:40:23.783Z,2.11
2023-03-04T10:42:53.614Z,2.13
2023-03-04T10:45:26.384Z,2.15
2023-03-04T10:47:57.437Z,2.17
2023-03-04T10:50:29.790Z,2.16
2023-03-04T10:52:57.982Z,2.15
2023-03-04T10:55:29.697Z,2.13
2023-03-04T10:57:58.638Z,2.14
2023-03-04T11:00:33.626Z,2.15
2023-03-04T11:03:31.003Z,2.15
2023-03-04T11:06:11.959Z,2.17
2023-03-04T11:08:40.958Z,2.15
2023-03-04T11:11:25.343Z,2.17
2023-03-04T11:13:57.706Z,2.17
2023-03-04T11:16:31.411Z,2.18
2023-03-04T11:19:04.413Z,2.18
2023-03-04T11:21:35.596Z,2.20
2023-03-04T11:24:26.059Z,2.21
2023-03-04T11:27:01.968Z,2.23
2023-03-04T11:29:32.700Z,2.26
2023-03-04T11:32:07.720Z,2.29
2023-03-04T11:34:44.305Z,2.32
2023-03-04T11:37:18.938Z,2.35
2023-03-04T11:39:51.826Z,2.34
2023-03-04T11:42:30.830Z,2.35
2023-03-04T11:44:58.938Z,2.37
2023-03-04T11:47:37.064Z,2.38
2023-03-04T11:50:28.179Z,2.39
2023-03-04T11:53:12.590Z,2.43
2023-03-04T11:55:47.038Z,2.47
2023-03-04T11:58:42.456Z,2.51
2023-03-04T12:01:17.209Z,2.54
2023-03-04T12:04:17.576Z,2.52
2023-03-04T12:07:01.309Z,2.54
2023-03-04T12:09:40.833Z,2.56
2023-03-04T12:12:24.766Z,2.51
2023-03-04T12:15:02.382Z,2.46
2023-03-04T12:17:40.547Z,2.41
2023-03-04T12:20:35.237Z,2.38
2023-03-04T12:23:19.352Z,2.38
2023-03-04T12:25:52.654Z,2.43
2023-03-04T12:28:32.683Z,2.49
2023-03-04T12:31:09.743Z,2.53
2023-03-04T12:33:49.337Z,2.60
2023-03-04T12:36:26.492Z,2.69
2023-03-04T12:39:17.145Z,2.80
2023-03-04T12:41:54.115Z,2.92
2023-03-04T12:44:22.910Z,3.04
2023-03-04T12:47:08.999Z,3.13
2023-03-04T12:49:48.846Z,3.25
2023-03-04T12:52:23.887Z,3.35
2023-03-04T12:55:15.925Z,3.47
2023-03-04T12:57:44.000Z,3.51
2023-03-04T13:00:25.245Z,3.55
2023-03-04T13:03:02.078Z,3.58
2023-03-04T13:06:05.424Z,3.59
2023-03-04T13:08:39.721Z,3.60
2023-03-04T13:11:41.687Z,3.62
2023-03-04T13:14:29.135Z,3.76
2023-03-04T13:16:57.532Z,4.09
2023-03-04T13:19:51.197Z,4.45
2023-03-04T13:22:44.132Z,4.71
2023-03-04T13:25:33.572Z,4.81
2023-03-04T13:28:19.930Z,4.89
2023-03-04T13:31:13.554Z,4.92
2023-03-04T13:33:59.296Z,4.90
2023-03-04T13:36:59.758Z,4.81
2023-03-04T13:39:37.860Z,4.66
2023-03-04T13:42:44.049Z,4.49
2023-03-04T13:45:35.776Z,4.34
2023-03-04T13:48:04.353Z,4.04
2023-03-04T13:50:51.824Z,3.64
2023-03-04T13:53:44.497Z,3.21
2023-03-04T13:56:37.090Z,2.93
2023-03-04T13:59:28.272Z,2.80
2023-03-04T14:02:01.237Z,2.70
2023-03-04T14:04:36.077Z,2.60
2023-03-04T14:07:05.165Z,2.59
2023-03-04T14:10:01.156Z,2.67
2023-03-04T14:12:30.456Z,2.70
2023-03-04T14:15:00.597Z,2.74
2023-03-04T14:17:32.703Z,2.91
2023-03-04T14:20:29.922Z,3.10
2023-03-04T14:22:57.634Z,3.27
2023-03-04T14:25:27.509Z,3.43
2023-03-04T14:28:05.855Z,3.61
2023-03-04T14:30:43.619Z,3.78
2023-03-04T14:33:16.069Z,3.90
2023-03-04T14:35:49.606Z,3.99
2023-03-04T14:38:24.619Z,4.07
2023-03-04T14:40:58.392Z,4.14
2023-03-04T14:43:53.750Z,4.26
2023-03-04T14:46:23.539Z,4.32
2023-03-04T14:48:55.720Z,4.36
2023-03-04T14:51:37.822Z,4.44
2023-03-04T14:54:05.519Z,4.54
2023-03-04T14:56:37.335Z,4.66
2023-03-04T14:59:04.672Z,4.73
2023-03-04T15:01:35.448Z,4.74
2023-03-04T15:04:04.450Z,4.67
2023-03-04T15:06:38.320Z,4.58
2023-03-04T15:09:07.570Z,4.46
2023-03-04T15:11:47.739Z,4.31
2023-03-04T15:14:43.840Z,4.12
2023-03-04T15:17:37.979Z,3.96
2023-03-04T15:20:20.923Z,3.81
2023-03-04T15:23:08.632Z,3.66
2023-03-04T15:25:36.625Z,3.53
2023-03-04T15:28:04.201Z,3.44
2023-03-04T15:30:35.557Z,3.34
2023-03-04T15:33:03.298Z,3.23
2023-03-04T15:35:34.602Z,3.13
2023-03-04T15:38:03.434Z,3.02
2023-03-04T15:40:35.315Z,2.96
2023-03-04T15:43:06.023Z,2.87
2023-03-04T15:45:36.485Z,2.77
2023-03-04T15:48:08.105Z,2.61
2023-03-04T15:50:36.522Z,2.45
2023-03-04T15:53:11.826Z,2.30
2023-03-04T15:55:39.283Z,2.16
2023-03-04T15:58:07.791Z,2.05
2023-03-04T16:00:36.799Z,1.95
2023-03-04T16:03:04.220Z,1.88
2023-03-04T16:05:36.449Z,1.81
2023-03-04T16:08:06.916Z,1.73
2023-03-04T16:10:35.400Z,1.65
2023-03-04T16:13:02.670Z,1.61
2023-03-04T16:15:31.909Z,1.52
2023-03-04T16:17:59.836Z,1.40
2023-03-04T16:20:29.780Z,1.30
2023-03-04T16:23:00.139Z,1.20
2023-03-04T16:25:36.729Z,1.09
2023-03-04T16:28:04.449Z,1.01
2023-03-04T16:30:32.870Z,0.93
2023-03-04T16:33:00.141Z,0.84
2023-03-04T16:35:29.326Z,0.76
2023-03-04T16:37:56.973Z,0.69
2023-03-04T16:40:44.662Z,0.60
2023-03-04T16:43:16.511Z,0.53
2023-03-04T16:45:44.192Z,0.47
2023-03-04T16:48:11.608Z,0.44
2023-03-04T16:50:42.243Z,0.40
2023-03-04T16:53:30.195Z,0.35
2023-03-04T16:55:58.954Z,0.29
2023-03-04T16:58:26.268Z,0.24
2023-03-04T17:00:53.405Z,0.21
2023-03-04T17:03:20.474Z,0.21
2023-03-04T17:06:10.704Z,0.18
2023-03-04T17:08:38.363Z,0.14
2023-03-04T17:11:06.005Z,0.12
2023-03-04T17:13:33.450Z,0.09
2023-03-04T17:16:04.109Z,0.09
2023-03-04T17:18:31.641Z,0.07
2023-03-04T17:21:05.671Z,0.05
2023-03-04T17:23:32.985Z,0.03
2023-03-04T17:26:00.958Z,0.02
2023-03-04T17:28:28.915Z,0.01
2023-03-04T17:30:56.322Z,0.00
2023-03-04T17:33:27.157Z,-0.01
2023-03-04T17:35:54.511Z,-0.03
2023-03-04T17:38:24.544Z,-0.06
2023-03-04T17:40:56.517Z,-0.09
2023-03-04T17:43:24.265Z,-0.13
2023-03-04T17:46:07.144Z,-0.16
2023-03-04T17:48:37.059Z,-0.21
2023-03-04T17:51:05.228Z,-0.25
2023-03-04T17:53:52.765Z,-0.30
2023-03-04T17:56:20.269Z,-0.33
2023-03-04T17:58:49.346Z,-0.35
2023-03-04T18:01:21.395Z,-0.38
2023-03-04T18:03:57.524Z,-0.41
2023-03-04T18:06:45.281Z,-0.44
2023-03-04T18:09:12.464Z,-0.46
2023-03-04T18:11:50.769Z,-0.48
2023-03-04T18:14:18.404Z,-0.50
2023-03-04T18:17:06.644Z,-0.52
2023-03-04T18:19:53.995Z,-0.55
2023-03-04T18:22:24.481Z,-0.58
2023-03-04T18:24:51.812Z,-0.60
2023-03-04T18:27:19.289Z,-0.62
2023-03-04T18:29:46.818Z,-0.64
2023-03-04T18:32:14.279Z,-0.65
2023-03-04T18:34:41.507Z,-0.65
2023-03-04T18:37:08.918Z,-0.67
2023-03-04T18:39:37.161Z,-0.68
2023-03-04T18:42:04.626Z,-0.70
2023-03-04T18:44:32.375Z,-0.72
2023-03-04T18:47:02.290Z,-0.75
2023-03-04T18:49:29.553Z,-0.77
2023-03-04T18:51:58.747Z,-0.80
2023-03-04T18:54:29.385Z,-0.86
2023-03-04T18:57:02.165Z,-0.92
2023-03-04T18:59:37.297Z,-0.96
2023-03-04T19:02:07.112Z,-1.02
2023-03-04T19:04:34.976Z,-1.07
2023-03-04T19:07:02.342Z,-1.12
2023-03-04T19:09:30.166Z,-1.19
2023-03-04T19:11:57.873Z,-1.25
2023-03-04T19:14:25.115Z,-1.32
2023-03-04T19:16:52.745Z,-1.35
2023-03-04T19:19:20.447Z,-1.38
2023-03-04T19:21:47.728Z,-1.40
2023-03-04T19:24:15.358Z,-1.43
2023-03-04T19:26:42.620Z,-1.45
2023-03-04T19:29:10.017Z,-1.47
2023-03-04T19:31:41.574Z,-1.51
2023-03-04T19:34:09.020Z,-1.53
2023-03-04T19:36:36.223Z,-1.55
2023-03-04T19:39:04.097Z,-1.57
2023-03-04T19:41:31.258Z,-1.59
2023-03-04T19:43:58.437Z,-1.61
2023-03-04T19:46:27.257Z,-1.62
2023-03-04T19:48:54.640Z,-1.65
2023-03-04T19:51:23.840Z,-1.67
2023-03-04T19:53:52.063Z,-1.70
2023-03-04T19:56:19.794Z,-1.72
2023-03-04T19:58:48.474Z,-1.74
2023-03-04T20:01:28.215Z,-1.77
2023-03-04T20:03:56.091Z,-1.80
2023-03-04T20:06:24.079Z,-1.83
2023-03-04T20:08:51.676Z,-1.86
2023-03-04T20:11:18.853Z,-1.88
2023-03-04T20:13:47.036Z,-1.92
2023-03-04T20:16:15.513Z,-1.96
2023-03-04T20:18:45.634Z,-1.99
2023-03-04T20:21:13.828Z,-2.03
2023-03-04T20:23:41.564Z,-2.06
2023-03-04T20:26:08.996Z,-2.09
2023-03-04T20:28:49.501Z,-2.12
2023-03-04T20:31:21.120Z,-2.15
2023-03-04T20:33:50.340Z,-2.17
2023-03-04T20:36:18.105Z,-2.20
2023-03-04T20:38:45.883Z,-2.23
2023-03-04T20:41:13.994Z,-2.26
2023-03-04T20:43:41.704Z,-2.29
2023-03-04T20:46:37.153Z,-2.31
2023-03-04T20:49:06.416Z,-2.33
2023-03-04T20:51:34.810Z,-2.36
2023-03-04T20:54:22.856Z,-2.38
2023-03-04T20:56:53.710Z,-2.41
2023-03-04T20:59:31.311Z,-2.44
2023-03-04T21:02:12.515Z,-2.47
2023-03-04T21:04:41.074Z,-2.50
2023-03-04T21:07:08.477Z,-2.51
2023-03-04T21:09:35.584Z,-2.53
2023-03-04T21:12:03.482Z,-2.55
2023-03-04T21:14:32.394Z,-2.57
2023-03-04T21:17:01.911Z,-2.60
2023-03-04T21:19:31.303Z,-2.63
2023-03-04T21:22:02.630Z,-2.63
2023-03-04T21:24:32.437Z,-2.67
2023-03-04T21:27:01.551Z,-2.67
2023-03-04T21:29:29.533Z,-2.69
2023-03-04T21:32:09.733Z,-2.70
2023-03-04T21:34:48.432Z,-2.72
2023-03-04T21:37:16.331Z,-2.72
2023-03-04T21:42:16.124Z,-2.73
2023-03-04T21:45:04.216Z,-2.74
2023-03-04T21:47:31.521Z,-2.77
2023-03-04T21:49:58.816Z,-2.78
2023-03-04T21:52:26.134Z,-2.79
2023-03-04T21:54:57.095Z,-2.80
2023-03-04T21:57:24.745Z,-2.80
2023-03-04T21:59:52.038Z,-2.81
2023-03-04T22:02:20.959Z,-2.81
2023-03-04T22:04:49.392Z,-2.82
2023-03-04T22:07:17.689Z,-2.83
2023-03-04T22:09:44.899Z,-2.83
2023-03-04T22:12:12.365Z,-2.84
2023-03-04T22:14:40.020Z,-2.83
2023-03-04T22:17:07.545Z,-2.83
2023-03-04T22:19:35.376Z,-2.84
2023-03-04T22:22:02.709Z,-2.85
2023-03-04T22:24:30.166Z,-2.86
2023-03-04T22:26:59.915Z,-2.87
2023-03-04T22:29:27.374Z,-2.88
2023-03-04T22:31:55.331Z,-2.89
2023-03-04T22:34:22.654Z,-2.90
2023-03-04T22:36:50.627Z,-2.90
2023-03-04T22:39:20.443Z,-2.91
2023-03-04T22:41:48.016Z,-2.92
2023-03-04T22:44:15.660Z,-2.92
2023-03-04T22:46:43.799Z,-2.93
2023-03-04T22:49:13.878Z,-2.94
2023-03-04T22:51:43.064Z,-2.94
2023-03-04T22:54:11.892Z,-2.95
2023-03-04T22:56:39.396Z,-2.94
2023-03-04T22:59:07.004Z,-2.94
2023-03-04T23:01:34.331Z,-2.94
2023-03-04T23:04:01.875Z,-2.94
2023-03-04T23:06:30.763Z,-2.94
2023-03-04T23:08:59.140Z,-2.95
2023-03-04T23:11:28.769Z,-2.97
2023-03-04T23:13:56.817Z,-2.99
2023-03-04T23:16:27.908Z,-3.01
2023-03-04T23:18:56.187Z,-3.02
2023-03-04T23:21:28.358Z,-3.03
2023-03-04T23:23:56.099Z,-3.02
2023-03-04T23:26:26.102Z,-3.04
2023-03-04T23:28:57.445Z,-3.05
2023-03-04T23:31:25.902Z,-3.05
2023-03-04T23:33:57.616Z,-3.07
2023-03-04T23:36:27.136Z,-3.08
2023-03-04T23:38:57.052Z,-3.10
2023-03-04T23:41:26.664Z,-3.11
2023-03-04T23:43:56.131Z,-3.12
2023-03-04T23:46:24.088Z,-3.11
2023-03-04T23:48:52.147Z,-3.12
2023-03-04T23:51:27.509Z,-3.13
2023-03-04T23:53:55.765Z,-3.14
2023-03-04T23:56:25.782Z,-3.15
2023-03-04T23:58:53.898Z,-3.16
